Cape Flattery, Washington
Current Conditions -  °F | °C
As of 7:53 PM on Tuesday 21 Oct 2014 (Local Time) from KUIL Reporting Station
Light Rain Light Rain  
Wind Chill: 57°   Ceiling: 1100
Heat Index: 57°   Visibility: 4mi
Dew Point: 56°   Wind: 17mph
Humidity: 96%   Direction: 170°S
Pressure: 29.65"   Gusts: 40mph
Location:  48.3685°N, 124.623°W
Report Text: KUIL 220253Z AUTO 17015G35KT 4SM -RA BR OVC011 14/13 A2965 RMK AO2 PK WND 18035/0252 CIG 008V015 SLP040 P0006 60013 T01390133 58031
Loading
Personal Weather Stations






























Interactive Weather Map
Tropical Storm Tracking
New forecast layout! Learn more

10-Day Weather Forecast

Advertisements
Track Severe Weather on mobile